createdAt,value
2023-02-26T00:13:20.433Z,-2.87
2023-02-26T00:18:29.589Z,-2.94
2023-02-26T00:23:38.637Z,-3.06
2023-02-26T00:28:47.642Z,-3
2023-02-26T00:33:56.600Z,-2.94
2023-02-26T00:39:05.695Z,-2.75
2023-02-26T00:44:14.712Z,-2.81
2023-02-26T00:49:23.663Z,-2.81
2023-02-26T00:54:32.742Z,-2.87
2023-02-26T00:59:41.704Z,-2.94
2023-02-26T01:04:50.592Z,-2.75
2023-02-26T01:09:59.755Z,-2.62
2023-02-26T01:15:09.193Z,-2.5
2023-02-26T01:20:18.211Z,-2.5
2023-02-26T01:25:27.151Z,-2.5
2023-02-26T01:30:36.021Z,-2.5
2023-02-26T01:35:45.221Z,-2.75
2023-02-26T01:40:54.296Z,-2.94
2023-02-26T01:46:03.269Z,-3.06
2023-02-26T01:51:12.232Z,-2.87
2023-02-26T01:56:21.204Z,-2.75
2023-02-26T02:01:30.289Z,-2.56
2023-02-26T02:06:39.349Z,-2.5
2023-02-26T02:11:48.340Z,-2.5
2023-02-26T02:16:57.358Z,-2.56
2023-02-26T02:22:06.294Z,-2.81
2023-02-26T02:27:15.175Z,-2.87
2023-02-26T02:32:24.288Z,-2.81
2023-02-26T02:37:33.256Z,-2.75
2023-02-26T02:42:42.227Z,-2.62
2023-02-26T02:47:51.307Z,-2.56
2023-02-26T02:53:00.333Z,-2.56
2023-02-26T02:58:09.340Z,-2.69
2023-02-26T03:03:18.329Z,-2.87
2023-02-26T03:08:27.708Z,-3
2023-02-26T03:13:36.908Z,-3.19
2023-02-26T03:18:45.759Z,-3.37
2023-02-26T03:23:54.664Z,-3.44
2023-02-26T03:29:03.546Z,-3.44
2023-02-26T03:34:12.542Z,-3.44
2023-02-26T03:39:21.653Z,-3.31
2023-02-26T03:44:30.708Z,-3.31
2023-02-26T03:49:39.854Z,-3.37
2023-02-26T03:54:48.871Z,-3.25
2023-02-26T03:59:57.958Z,-3.37
2023-02-26T04:05:06.829Z,-3.44
2023-02-26T04:10:15.851Z,-3.62
2023-02-26T04:20:33.483Z,-3.5
2023-02-26T04:25:42.420Z,-3.12
2023-02-26T04:30:51.563Z,-3.06
2023-02-26T04:36:00.352Z,-3.19
2023-02-26T04:41:09.409Z,-3.19
2023-02-26T04:46:18.417Z,-3.31
2023-02-26T04:56:26.251Z,-3.25
2023-02-26T05:01:34.582Z,-3.31
2023-02-26T05:06:43.628Z,-3.44
2023-02-26T05:17:01.603Z,-3.56
2023-02-26T05:27:20.000Z,-3.5
2023-02-26T05:32:29.210Z,-3.31
2023-02-26T05:37:38.087Z,-3.19
2023-02-26T05:42:47.223Z,-3.06
2023-02-26T05:47:56.146Z,-3
2023-02-26T05:53:05.127Z,-3.12
2023-02-26T05:58:14.010Z,-2.87
2023-02-26T06:03:23.171Z,-2.94
2023-02-26T06:08:31.814Z,-2.94
2023-02-26T06:13:40.877Z,-3
2023-02-26T06:18:49.795Z,-2.94
2023-02-26T06:23:58.870Z,-3.06
2023-02-26T06:34:05.780Z,-3.31
2023-02-26T06:39:14.699Z,-3.31
2023-02-26T06:44:23.863Z,-3.31
2023-02-26T06:49:32.768Z,-3.37
2023-02-26T06:54:41.980Z,-3.31
2023-02-26T06:59:51.127Z,-3.31
2023-02-26T07:05:00.109Z,-3.12
2023-02-26T07:10:09.166Z,-3
2023-02-26T07:15:18.246Z,-2.81
2023-02-26T07:20:27.287Z,-2.37
2023-02-26T07:25:36.648Z,-1.94
2023-02-26T07:30:45.842Z,-1.75
2023-02-26T07:35:54.621Z,-1.69
2023-02-26T07:41:03.681Z,-1.5
2023-02-26T07:46:13.000Z,-1.12
2023-02-26T07:51:22.327Z,-0.81
2023-02-26T08:01:40.658Z,-0.56
2023-02-26T08:06:49.761Z,-0.37
2023-02-26T08:11:59.131Z,0.06
2023-02-26T08:17:08.725Z,0.62
2023-02-26T08:22:18.425Z,0.88
2023-02-26T08:27:28.504Z,1.25
2023-02-26T08:32:37.809Z,1.25
2023-02-26T08:47:58.073Z,2.69
2023-02-26T08:53:07.171Z,3.31
2023-02-26T08:58:15.717Z,3.12
2023-02-26T09:03:23.711Z,2.81
2023-02-26T09:08:33.319Z,3.5
2023-02-26T09:13:43.038Z,3.87
2023-02-26T09:18:52.695Z,4.44
2023-02-26T09:24:01.692Z,4.31
2023-02-26T09:29:12.850Z,4.37
2023-02-26T09:34:22.245Z,4.12
2023-02-26T09:39:30.687Z,4.5
2023-02-26T09:44:40.518Z,5.56
2023-02-26T09:49:50.312Z,7.06
2023-02-26T09:54:59.293Z,7.12
2023-02-26T10:00:08.085Z,7.25
2023-02-26T10:05:17.100Z,7.19
2023-02-26T10:10:25.138Z,7.12
2023-02-26T10:15:34.597Z,8.31
2023-02-26T10:20:43.748Z,8.56
2023-02-26T10:25:53.060Z,8.69
2023-02-26T10:31:02.037Z,9.31
2023-02-26T10:36:11.072Z,8
2023-02-26T10:41:20.135Z,9.25
2023-02-26T10:46:28.778Z,8.19
2023-02-26T10:51:37.307Z,8.88
2023-02-26T10:56:46.345Z,8
2023-02-26T11:01:55.465Z,7.75
2023-02-26T11:07:04.747Z,8.5
2023-02-26T11:12:13.478Z,8.88
2023-02-26T11:17:22.694Z,8.69
2023-02-26T11:22:29.673Z,6.5
2023-02-26T11:27:39.538Z,7.62
2023-02-26T11:32:48.242Z,8.06
2023-02-26T11:37:58.131Z,7.94
2023-02-26T11:43:05.450Z,6.56
2023-02-26T11:48:13.942Z,5.62
2023-02-26T11:53:22.080Z,5
2023-02-26T11:58:30.823Z,4.87
2023-02-26T12:03:40.132Z,5.31
2023-02-26T12:08:49.442Z,5.75
2023-02-26T12:13:57.601Z,4.75
2023-02-26T12:19:06.034Z,4.31
2023-02-26T12:24:14.841Z,4.12
2023-02-26T12:29:23.789Z,4.31
2023-02-26T12:34:33.060Z,4.62
2023-02-26T12:44:51.039Z,5
2023-02-26T12:49:59.958Z,5.06
2023-02-26T12:55:10.243Z,6.19
2023-02-26T13:00:20.303Z,5.75
2023-02-26T13:05:28.128Z,6
2023-02-26T13:10:37.461Z,5.5
2023-02-26T13:15:45.503Z,4.87
2023-02-26T13:20:54.401Z,5.31
2023-02-26T13:26:02.942Z,5.56
2023-02-26T13:36:19.913Z,4.75
2023-02-26T13:41:29.221Z,4.87
2023-02-26T13:46:37.999Z,4.94
2023-02-26T13:51:47.007Z,4.75
2023-02-26T13:56:55.691Z,4.37
2023-02-26T14:02:04.210Z,3.87
2023-02-26T14:07:13.459Z,4.94
2023-02-26T14:12:23.376Z,6.56
2023-02-26T14:17:32.808Z,6.5
2023-02-26T14:22:41.507Z,5.75
2023-02-26T14:27:50.263Z,5.69
2023-02-26T14:32:59.306Z,5.44
2023-02-26T14:38:08.524Z,5.69
2023-02-26T14:43:17.223Z,5.12
2023-02-26T14:48:25.786Z,4.56
2023-02-26T14:53:34.395Z,4.31
2023-02-26T14:58:43.159Z,4.31
2023-02-26T15:03:52.131Z,4.12
2023-02-26T15:09:01.179Z,3.94
2023-02-26T15:14:10.176Z,4
2023-02-26T15:19:18.899Z,3.5
2023-02-26T15:24:28.157Z,3.62
2023-02-26T15:29:37.394Z,3.75
2023-02-26T15:34:46.160Z,3.56
2023-02-26T15:39:55.020Z,3.44
2023-02-26T15:45:03.908Z,3.37
2023-02-26T15:50:12.923Z,3.44
2023-02-26T15:55:21.754Z,3.25
2023-02-26T16:00:31.050Z,2.94
2023-02-26T16:05:39.921Z,2.69
2023-02-26T16:10:48.693Z,2.5
2023-02-26T16:15:57.669Z,2.31
2023-02-26T16:21:06.508Z,2.25
2023-02-26T16:26:15.365Z,2.25
2023-02-26T16:31:24.477Z,2.37
2023-02-26T16:36:33.513Z,2.44
2023-02-26T16:41:42.537Z,2.5
2023-02-26T16:46:51.501Z,2.44
2023-02-26T16:52:00.427Z,2.44
2023-02-26T16:57:09.500Z,2.31
2023-02-26T17:02:18.541Z,2.19
2023-02-26T17:07:27.519Z,2.06
2023-02-26T17:12:36.394Z,1.94
2023-02-26T17:17:45.358Z,1.87
2023-02-26T17:22:54.176Z,1.69
2023-02-26T17:28:03.387Z,1.69
2023-02-26T17:33:12.352Z,1.56
2023-02-26T17:38:21.340Z,1.37
2023-02-26T17:43:30.197Z,1.19
2023-02-26T17:48:39.112Z,1.19
2023-02-26T17:53:48.127Z,1.19
2023-02-26T17:58:57.191Z,1.06
2023-02-26T18:04:06.350Z,1.06
2023-02-26T18:09:15.171Z,1.19
2023-02-26T18:14:24.445Z,1.06
2023-02-26T18:19:33.507Z,0.94
2023-02-26T18:34:38.051Z,0.81
2023-02-26T18:39:47.134Z,1
2023-02-26T18:44:55.983Z,0.94
2023-02-26T18:50:05.188Z,0.88
2023-02-26T18:55:14.193Z,0.81
2023-02-26T19:00:23.225Z,0.5
2023-02-26T19:05:32.157Z,0.19
2023-02-26T19:10:41.112Z,-0.06
2023-02-26T19:15:50.124Z,0
2023-02-26T19:20:59.129Z,0.19
2023-02-26T19:31:17.216Z,-0.13
2023-02-26T19:36:26.015Z,-0.19
2023-02-26T19:46:43.947Z,-0.25
2023-02-26T19:51:53.178Z,-0.25
2023-02-26T19:57:05.006Z,-0.25
2023-02-26T20:02:14.098Z,-0.37
2023-02-26T20:07:23.166Z,-0.25
2023-02-26T20:12:32.116Z,-0.44
2023-02-26T20:17:41.193Z,-0.56
2023-02-26T20:22:50.122Z,-0.5
2023-02-26T20:27:59.301Z,-0.44
2023-02-26T20:33:08.187Z,-0.62
2023-02-26T20:38:17.320Z,-0.56
2023-02-26T20:43:26.418Z,-0.69
2023-02-26T20:48:35.374Z,-0.75
2023-02-26T20:53:44.306Z,-0.75
2023-02-26T20:58:53.239Z,-0.88
2023-02-26T21:04:02.326Z,-0.94
2023-02-26T21:09:11.214Z,-1
2023-02-26T21:14:20.352Z,-1
2023-02-26T21:19:29.553Z,-0.94
2023-02-26T21:24:38.505Z,-1.06
2023-02-26T21:29:47.630Z,-1.12
2023-02-26T21:34:56.334Z,-1.25
2023-02-26T21:40:05.370Z,-1.12
2023-02-26T21:50:24.323Z,-1.25
2023-02-26T21:55:33.336Z,-1.31
2023-02-26T22:00:42.311Z,-1.25
2023-02-26T22:05:51.282Z,-1.19
2023-02-26T22:11:00.403Z,-1.12
2023-02-26T22:16:09.493Z,-1.19
2023-02-26T22:21:18.525Z,-1.25
2023-02-26T22:26:27.597Z,-1.31
2023-02-26T22:31:36.709Z,-1.31
2023-02-26T22:36:45.619Z,-1.12
2023-02-26T22:41:54.681Z,-1.19
2023-02-26T22:47:03.611Z,-1.12
2023-02-26T22:52:12.744Z,-1.06
2023-02-26T22:57:21.841Z,-1.19
2023-02-26T23:02:30.870Z,-1.12
2023-02-26T23:07:40.037Z,-1
2023-02-26T23:12:49.059Z,-1.12
2023-02-26T23:17:57.909Z,-1.25
2023-02-26T23:23:06.939Z,-1.25
2023-02-26T23:28:15.900Z,-1.31
2023-02-26T23:33:24.845Z,-1.37
2023-02-26T23:38:33.732Z,-1.25
2023-02-26T23:43:42.705Z,-1.44
2023-02-26T23:48:51.550Z,-1.56
2023-02-26T23:59:09.597Z,-1.69
